http://www.schuttertalwetter.de (Christian Eisenberg)
Wetterdaten: aktuell Dienstag, 23.07.2024 22:45
Datum Zeit Temp. A. Luftdruck Regen Wind Richtung Richtung Sonnenschein Solar Windben
23.07.2024 22:45 17,7 C 1020,0 hPa 0,0 l/m 3,2 km/h (1 Bft) N-NW 337 0 min 0 W/m 8,0 km/h (2 Bft)
23.07.2024 21:45 18,8 C 1019,2 hPa 1,0 l/m 1,6 km/h (1 Bft) S 180 0 min 0 W/m 4,8 km/h (1 Bft)
23.07.2024 20:45 19,4 C 1019,0 hPa 4,0 l/m 1,6 km/h (1 Bft) SO 135 0 min 19 W/m 3,2 km/h (1 Bft)
23.07.2024 19:45 20,2 C 1018,7 hPa 1,8 l/m 1,6 km/h (1 Bft) W 270 0 min 35 W/m 3,2 km/h (1 Bft)
23.07.2024 18:45 22,0 C 1018,4 hPa 0,2 l/m 1,6 km/h (1 Bft) S 180 0 min 62 W/m 3,2 km/h (1 Bft)
23.07.2024 17:45 23,1 C 1018,6 hPa 0,0 l/m 3,2 km/h (1 Bft) N-NW 337 0 min 44 W/m 6,4 km/h (2 Bft)
23.07.2024 16:45 23,0 C 1018,6 hPa 0,0 l/m 3,2 km/h (1 Bft) S 180 5 min 83 W/m 6,4 km/h (2 Bft)
23.07.2024 15:45 24,3 C 1018,4 hPa 0,0 l/m 9,7 km/h (2 Bft) S 180 35 min 468 W/m 14,5 km/h (3 Bft)
23.07.2024 14:45 24,3 C 1018,7 hPa 0,0 l/m 12,9 km/h (3 Bft) S-SO 157 55 min 343 W/m 20,9 km/h (4 Bft)
23.07.2024 13:45 23,6 C 1019,0 hPa 0,0 l/m 12,9 km/h (3 Bft) S 180 50 min 861 W/m 27,4 km/h (5 Bft)
23.07.2024 12:45 22,4 C 1019,7 hPa 0,0 l/m 9,7 km/h (2 Bft) S 180 10 min 287 W/m 20,9 km/h (4 Bft)
23.07.2024 11:45 22,3 C 1019,8 hPa 0,0 l/m 8,0 km/h (2 Bft) S 180 45 min 392 W/m 22,5 km/h (4 Bft)
23.07.2024 10:45 20,7 C 1020,1 hPa 0,0 l/m 12,9 km/h (3 Bft) S-SO 157 25 min 466 W/m 19,3 km/h (3 Bft)
23.07.2024 09:45 19,4 C 1020,8 hPa 0,0 l/m 8,0 km/h (2 Bft) S 180 10 min 241 W/m 16,1 km/h (3 Bft)
23.07.2024 08:45 19,1 C 1020,8 hPa 0,0 l/m 9,7 km/h (2 Bft) S 180 60 min 483 W/m 16,1 km/h (3 Bft)
23.07.2024 07:45 15,2 C 1020,7 hPa 0,0 l/m 0,0 km/h (0 Bft) N 0 5 min 202 W/m 0,0 km/h (0 Bft)
23.07.2024 06:45 14,4 C 1020,5 hPa 0,0 l/m 0,0 km/h (0 Bft) N 0 0 min 42 W/m 0,0 km/h (0 Bft)
23.07.2024 05:45 14,9 C 1020,3 hPa 0,0 l/m 0,0 km/h (0 Bft) N 0 0 min 0 W/m 0,0 km/h (0 Bft)
23.07.2024 04:45 15,6 C 1020,3 hPa 0,0 l/m 0,0 km/h (0 Bft) N 0 0 min 0 W/m 0,0 km/h (0 Bft)
23.07.2024 03:45 15,7 C 1020,3 hPa 0,0 l/m 0,0 km/h (0 Bft) N 0 0 min 0 W/m 0,0 km/h (0 Bft)
23.07.2024 02:45 16,3 C 1020,3 hPa 0,0 l/m 1,6 km/h (1 Bft) S-SW 202 0 min 0 W/m 3,2 km/h (1 Bft)
23.07.2024 01:45 17,1 C 1020,4 hPa 0,0 l/m 0,0 km/h (0 Bft) N 0 0 min 0 W/m 0,0 km/h (0 Bft)
23.07.2024 00:45 17,0 C 1020,4 hPa 0,0 l/m 1,6 km/h (1 Bft) S-SW 202 0 min 0 W/m 3,2 km/h (1 Bft)
22.07.2024 23:45 16,6 C 1020,3 hPa 0,0 l/m 0,0 km/h (0 Bft) N 0 0 min 0 W/m 0,0 km/h (0 Bft)
22.07.2024 23:00 16,6 C 1020,1 hPa 0,0 l/m 0,0 km/h (0 Bft) S-SW 202 0 min 0 W/m 1,6 km/h (1 Bft)
_ Min-Zeit 06:30 19:10 - 20:50 - - - - 08:30
Minimum _ 14,2 C 1018,3 hPa - 0,0 km/h (0 Bft) - - - - 0,0 km/h (0 Bft)
_ Max-Zeit 14:25 09:40 20:05 13:50 - - 15:55 13:25 15:00
Maximum _ 24,7 C 1020,9 hPa 1,4 l/m 14,5 km/h
S-SO (3 Bft)
- - 5 min 1111 W/m 30,6 km/h
O-SO (5 Bft)
Durchschnitt _ 19,1 C 1019,7 hPa #7,0 l/m 3,7 km/h (1 Bft) S - #5:00 h 294 W/m 7,3 km/h (2 Bft)